• Join FlightAware (Why Join?)
  • Login
  • US Flag 
06:37PM EDT


 

Airport Tracker/Info


-or-


 

Live Flight TrackerFlight Track Log ✈ DAL2033 ✈ 25-May-2013 ✈ KATL - KALB

Flight Track Log - Related Links

Times and Time Zones

All times are in EDT time to prevent confusion due to time zone crossing. See the DAL2033 flight status page for this flight to view local times or setup timezone preferences in your user account.

Time Position Orientation Groundspeed Altitude Reporting Facility
EDT Latitude Longitude Course Direction KTS MPH feet Rate Location/Type
03:36PM 33.6500 -84.4500 North 158 182 2,200  Level Atlanta TRACON
03:37PM 33.6667 -84.5167 287° West 240 276 3,300 2,040 Climbing Atlanta TRACON
03:38PM 33.8155 -84.1667 North  Level FlightAware Approximate
03:38PM 33.7167 -84.5833 312° West 270 311 6,300  Level Atlanta TRACON
03:39PM 33.9084 -84.2418 320° Northwest  Level FlightAware Approximate
03:39PM 33.8350 -84.5539 12° North 290 334 10,400  Level Atlanta Center
03:40PM 34.0164 -84.2667 North  Level FlightAware Approximate
03:41PM 34.1318 -84.2667 North  Level FlightAware Approximate
03:41PM 34.0044 -84.4522 26° Northeast 340 391 12,900  Level Atlanta Center
03:42PM 34.1111 -84.3875 27° Northeast 380 437 15,300 2,100 Climbing Atlanta Center
03:43PM 34.2114 -84.3278 26° Northeast 422 486 17,200 2,220 Climbing Atlanta Center
03:44PM 34.3242 -84.2753 21° North 428 493 19,800 2,700 Climbing Atlanta Center
03:45PM 34.4431 -84.2453 12° North 412 474 22,600 2,280 Climbing Atlanta Center
03:46PM 34.5517 -84.2203 11° North 396 456 24,400 1,680 Climbing Atlanta Center
03:47PM 34.6561 -84.1953 11° North 384 442 26,000 1,080 Climbing Atlanta Center
03:48PM 34.7522 -84.1753 10° North 384 442 26,600 720 Climbing Atlanta Center
03:49PM 34.8647 -84.1475 11° North 397 457 27,500 1,140 Climbing Atlanta Center
03:50PM 34.9817 -84.1200 11° North 410 472 28,900 900 Climbing Atlanta Center
03:51PM 35.0964 -84.0922 11° North 410 472 29,300 780 Climbing Atlanta Center
03:52PM 35.2092 -84.0642 11° North 410 472 30,500 1,080 Climbing Atlanta Center
03:53PM 35.3219 -84.0361 11° North 410 472 31,500 1,020 Climbing Atlanta Center
03:54PM 35.4325 -84.0108 11° North 410 472 32,600 720 Climbing Atlanta Center
03:55PM 35.5408 -83.9825 12° North 410 472 33,000 180 Climbing Atlanta Center
03:56PM 35.6639 -83.9519 11° North 410 472 33,000  Level Atlanta Center
03:57PM 35.7744 -83.9261 11° North 410 472 33,000  Level Atlanta Center
03:58PM 35.8850 -83.9003 11° North 410 472 33,000  Level Atlanta Center
03:59PM 35.9892 -83.8411 25° Northeast 410 472 33,000  Level Atlanta Center
04:00PM 36.0914 -83.7767 27° Northeast 405 466 33,000  Level Atlanta Center
04:02PM 36.2169 -83.6950 28° Northeast 411 473 33,000  Level Indianapolis Center
04:03PM 36.3386 -83.6183 27° Northeast 410 472 33,000  Level Indianapolis Center
04:04PM 36.4400 -83.5525 28° Northeast 411 473 33,000  Level Indianapolis Center
04:05PM 36.5356 -83.4942 26° Northeast 406 467 33,000  Level Indianapolis Center
04:06PM 36.6356 -83.4272 28° Northeast 404 465 33,000  Level Indianapolis Center
04:07PM 36.7275 -83.3419 37° Northeast 408 470 33,000  Level Indianapolis Center
04:08PM 36.8206 -83.2550 37° Northeast 414 476 33,000  Level Indianapolis Center
04:09PM 36.9133 -83.1667 37° Northeast 414 476 33,000  Level Indianapolis Center
04:10PM 37.0228 -83.0656 36° Northeast 412 474 33,000  Level Indianapolis Center
04:11PM 37.1158 -82.9756 38° Northeast 415 478 33,000  Level Indianapolis Center
04:12PM 37.2072 -82.8869 38° Northeast 410 472 33,000  Level Indianapolis Center
04:13PM 37.2989 -82.7994 37° Northeast 410 472 33,000  Level Indianapolis Center
04:14PM 37.3914 -82.7131 37° Northeast 411 473 33,000  Level Indianapolis Center
04:15PM 37.4822 -82.6247 38° Northeast 410 472 33,000  Level Indianapolis Center
04:16PM 37.5736 -82.5356 38° Northeast 412 474 33,000  Level Indianapolis Center
04:17PM 37.6639 -82.4472 38° Northeast 410 472 33,000  Level Indianapolis Center
04:18PM 37.7556 -82.3583 37° Northeast 413 475 33,000  Level Indianapolis Center
04:19PM 37.8492 -82.2681 37° Northeast 419 482 33,000  Level Indianapolis Center
04:20PM 37.9439 -82.1733 38° Northeast 430 495 33,000  Level Indianapolis Center
04:21PM 38.0425 -82.0775 37° Northeast 435 501 33,000  Level Indianapolis Center
04:22PM 38.1369 -81.9825 38° Northeast 434 499 33,000  Level Indianapolis Center
04:23PM 38.2325 -81.8886 38° Northeast 434 499 33,000  Level Indianapolis Center
04:24PM 38.3469 -81.7725 38° Northeast 438 504 33,000  Level Indianapolis Center
04:25PM 38.4311 -81.6547 48° Northeast 448 516 33,000  Level Indianapolis Center
04:26PM 38.5122 -81.5381 48° Northeast 446 513 33,000  Level Indianapolis Center
04:27PM 38.5931 -81.4231 48° Northeast 444 511 33,000  Level Indianapolis Center
04:28PM 38.6722 -81.3086 48° Northeast 439 505 33,000  Level Indianapolis Center
04:29PM 38.7522 -81.1942 48° Northeast 436 502 33,000  Level Indianapolis Center
04:30PM 38.8475 -81.0553 49° Northeast 434 499 33,000  Level Indianapolis Center
04:31PM 38.9275 -80.9403 48° Northeast 433 498 33,000  Level Indianapolis Center
04:32PM 39.0072 -80.8217 49° Northeast 438 504 33,000  Level Indianapolis Center
04:33PM 39.0900 -80.7072 47° Northeast 435 501 33,000  Level Indianapolis Center
04:34PM 39.1722 -80.5922 47° Northeast 436 502 33,000  Level Indianapolis Center
04:35PM 39.2544 -80.4778 47° Northeast 436 502 33,000  Level Indianapolis Center
04:36PM 39.3356 -80.3633 47° Northeast 433 498 33,000  Level Indianapolis Center
04:37PM 39.4169 -80.2494 47° Northeast 430 495 33,000  Level Indianapolis Center
04:38PM 39.4964 -80.1356 48° Northeast 428 493 33,000  Level Indianapolis Center
04:40PM 39.5925 -79.9964 48° Northeast 431 496 33,000  Level Indianapolis Center
04:41PM 39.6719 -79.8794 49° Northeast 431 496 33,000  Level Indianapolis Center
04:42PM 39.7522 -79.7628 48° Northeast 433 498 33,000  Level Indianapolis Center
04:43PM 39.8319 -79.6442 49° Northeast 436 502 33,000  Level Indianapolis Center
04:44PM 39.9122 -79.5303 47° Northeast 427 491 33,000  Level Cleveland Center
04:45PM 39.9903 -79.4125 49° Northeast 427 491 33,000  Level Cleveland Center
04:46PM 40.0519 -79.3219 48° Northeast 427 491 33,000  Level Cleveland Center
04:47PM 40.1339 -79.1956 50° Northeast 422 486 33,000  Level Cleveland Center
04:48PM 40.2114 -79.0769 49° Northeast 417 480 33,000  Level Cleveland Center
04:49PM 40.2892 -78.9608 49° Northeast 417 480 33,000  Level Cleveland Center
04:50PM 40.3747 -78.8308 49° Northeast 417 480 33,000  Level Cleveland Center
04:51PM 40.4500 -78.7142 50° Northeast 412 474 33,000  Level Cleveland Center
04:52PM 40.5253 -78.5944 50° Northeast 412 474 33,000  Level Cleveland Center
04:53PM 40.6461 -78.4111 49° Northeast 416 479 33,000  Level New York Center
04:54PM 40.7244 -78.2939 49° Northeast 416 479 33,000  Level New York Center
04:55PM 40.7986 -78.1731 51° Northeast 422 486 33,000  Level New York Center
04:57PM 40.8878 -78.0220 51° Northeast  Level FlightAware Approximate
04:57PM 40.9533 -77.9289 51° Northeast 427 491 33,000  Level New York Center
04:58PM 41.0278 -77.8017 52° Northeast 427 491 33,000  Level New York Center
04:59PM 41.1017 -77.6772 52° Northeast 427 491 33,000  Level New York Center
05:00PM 41.1847 -77.5367 52° Northeast 427 491 33,000 -120 Level New York Center
05:01PM 41.2564 -77.4114 53° Northeast 432 497 32,800 -840 Descending New York Center
05:02PM 41.3278 -77.2886 52° Northeast 426 490 31,400 -1,380 Descending New York Center
05:03PM 41.3992 -77.1653 52° Northeast 426 490 30,000 -1,200 Descending New York Center
05:04PM 41.4589 -77.0631 52° Northeast 426 490 29,000 -540 Descending New York Center
05:05PM 41.5483 -76.9053 53° Northeast 431 496 29,000  Level New York Center
05:06PM 41.6217 -76.7731 53° Northeast 431 496 29,000  Level New York Center
05:07PM 41.6833 -76.6675 52° Northeast 436 502 29,000  Level New York Center
05:08PM 41.7631 -76.5244 53° Northeast 436 502 29,000  Level New York Center
05:10PM 41.9150 -76.2544 53° Northeast 446 513 29,000 -360 Level Boston Center
05:11PM 41.9883 -76.1217 53° Northeast 446 513 28,000 -1,440 Descending Boston Center
05:12PM 42.0458 -76.0189 53° Northeast 439 505 26,200 -2,040 Descending Boston Center
05:13PM 42.1342 -75.8586 53° Northeast 439 505 24,000 -1,140 Descending Boston Center
05:14PM 42.2069 -75.7225 54° Northeast 445 512 24,000  Level Boston Center
05:15PM 42.2775 -75.5914 54° Northeast 440 506 24,000 -540 Level Boston Center
05:16PM 42.3311 -75.4539 62° Northeast 427 491 23,000 -1,080 Descending Boston Center
05:17PM 42.3769 -75.2986 68° East 421 484 21,900 -1,740 Descending Boston Center
05:18PM 42.4203 -75.1486 69° East 426 490 19,600 -2,340 Descending Boston Center
05:19PM 42.4611 -75.0039 69° East 426 490 17,300 -2,400 Descending Boston Center
05:20PM 42.5036 -74.8733 66° East 403 464 14,800 -2,460 Descending Boston Center
05:21PM 42.5239 -74.8036 68° East 371 427 13,700 -2,940 Descending Boston Center
05:21PM 42.5461 -74.7286 68° East 376 433 11,900 -2,460 Descending Boston Center
05:22PM 42.5664 -74.6558 69° East 362 417 11,000 -840 Descending Boston Center
05:22PM 42.5842 -74.6031 65° Northeast 369 425 11,100 -120 Climbing Boston Center
05:23PM 42.6042 -74.5331 69° East 351 404 10,900  Descending Boston Center
05:23PM 42.5947 -74.4792 103° East 346 398 11,100 -600 Climbing Boston Center
05:24PM 42.5853 -74.4169 102° East 301 346 10,300 -960 Descending Boston Center
05:24PM 42.5800 -74.3717 99° East 304 350 10,000 -1,320 Descending Boston Center
05:25PM 42.5664 -74.3119 107° East 280 322 9,000 -2,040 Descending Boston Center
05:25PM 42.5528 -74.2467 106° East 289 333 8,000 -1,800 Descending Boston Center
05:26PM 42.5450 -74.2097 106° East 282 325 7,200 -1,380 Descending Boston Center
05:27PM 42.5314 -74.1558 109° East 283 326 6,400 -1,920 Descending Boston Center
05:27PM 42.5197 -74.0936 104° East 288 331 5,100 -2,340 Descending Boston Center
05:28PM 42.5144 -74.0286 96° East 283 326 4,100 -1,140 Descending Boston Center
05:28PM 42.5150 -73.9892 89° East 268 308 4,000 -1,140 Descending Boston Center
05:29PM 42.5178 -73.9189 87° East 271 312 3,000 -1,140 Descending Boston Center
05:29PM 42.5161 -73.8964 96° East 264 304 3,000 -300 Level Boston Center
05:30PM 42.5292 -73.8431 72° East 249 287 2,700 -300 Descending Boston Center
05:30PM 42.5378 -73.8208 62° Northeast 204 235 2,700 -300 Level Boston Center
05:31PM 42.5672 -73.7989 29° Northeast 181 208 2,400 -420 Descending Boston Center